Machitis — C6BA4 — position and weather

sailwx.info

Track history (hours):
 
Tides and Currents Weather Stations Pressure Air Temp Water Temp Dewpoint Dewpoint Depression Visibility Wind Speed Wind Dir Waves Ship Positions

Machitis

Last reported at 2018-Aug-16 07:30 UTC. Time now 2018-Aug-16 08:00 UTC.
Position N 55°01' E 013°49'.

Length 149 m; draft 7.2 m.

Type: Cargo ship. MMSI: 311000207.

Date/timePositionNaut miles runAvg speedWind from/ knotsBaromVisibWave heightAir tempDewpointWater temp
2018-Aug-16 07:30N 55°01' E 013°49'610.8
2018-Aug-16 07:00N 55°03' E 013°58'510.5
2018-Aug-16 06:30N 55°05' E 014°06'510.8
2018-Aug-16 06:00N 55°09' E 014°12'611.1
2018-Aug-16 05:30N 55°14' E 014°19'611.1
2018-Aug-16 05:00N 55°18' E 014°25'510.8
2018-Aug-16 04:30N 55°22' E 014°31'510.6
2018-Aug-16 04:00N 55°26' E 014°36'510.8
2018-Aug-16 03:30N 55°29' E 014°45'510.5
2018-Aug-16 03:00N 55°31' E 014°53'510.7
2018-Aug-16 02:30N 55°34' E 015°01'510.8
2018-Aug-16 02:00N 55°37' E 015°09'510.9
2018-Aug-16 01:30N 55°39' E 015°18'510.8
2018-Aug-16 01:00N 55°42' E 015°26'611.1
2018-Aug-16 00:30N 55°45' E 015°34'511.0
2018-Aug-16 00:00N 55°48' E 015°43'510.9
2018-Aug-15 23:30N 55°50' E 015°51'611.0
2018-Aug-15 23:00N 55°53' E 015°60'611.2
2018-Aug-15 22:30N 55°56' E 016°09'611.0
2018-Aug-15 22:00N 55°59' E 016°17'510.8
2018-Aug-15 21:30N 56°01' E 016°25'510.9
2018-Aug-15 21:00N 56°04' E 016°34'510.9
2018-Aug-15 20:30N 56°07' E 016°42'510.7
2018-Aug-15 20:00N 56°10' E 016°50'510.5
2018-Aug-15 19:30N 56°14' E 016°57'510.5
2018-Aug-15 18:59N 56°17' E 017°05'27510.7
2018-Aug-14 17:16N 59°35' E 023°04'311.1
2018-Aug-14 17:00N 59°36' E 023°10'611.2
2018-Aug-14 16:30N 59°38' E 023°20'611.2
2018-Aug-14 16:00N 59°39' E 023°31'611.1
2018-Aug-14 15:30N 59°41' E 023°42'611.2
2018-Aug-14 15:00N 59°42' E 023°53'911.1
2018-Aug-14 14:09N 59°45' E 024°11'510.8
2018-Aug-14 13:41N 59°46' E 024°20'310.5
2018-Aug-14 13:27N 59°47' E 024°25'510.6
2018-Aug-14 13:00N 59°48' E 024°34'510.4
2018-Aug-14 12:30N 59°49' E 024°44'610.4
2018-Aug-14 11:56N 59°50' E 024°56'410.5
2018-Aug-14 11:30N 59°51' E 025°05'510.6
2018-Aug-14 11:00N 59°52' E 025°15'510.5
2018-Aug-14 10:30N 59°53' E 025°25'2810.6
2018-Aug-14 07:52N 59°59' E 026°19'510.8
2018-Aug-14 07:25N 60°01' E 026°29'510.5
2018-Aug-14 06:59N 60°01' E 026°38'610.5
2018-Aug-14 06:22N 60°00' E 026°51'2710.4
2018-Aug-14 03:45N 60°11' E 027°41'16 9.9
2018-Aug-14 02:08N 60°08' E 028°13'110.0
2018-Aug-14 01:59N 60°08' E 028°16'510.0
2018-Aug-14 01:27N 60°05' E 028°24'4 9.9
2018-Aug-14 01:00N 60°03' E 028°32'510.3
2018-Aug-14 00:30N 60°03' E 028°43'510.4
2018-Aug-14 00:00N 60°03' E 028°53'610.4
2018-Aug-13 23:27N 60°02' E 029°04'14 9.8
2018-Aug-13 22:00N 60°01' E 029°33'5 9.8
2018-Aug-13 21:27N 59°59' E 029°43'4 9.1
2018-Aug-13 21:01N 59°57' E 029°50'510.0
2018-Aug-13 20:31N 59°55' E 029°59'4 8.8
2018-Aug-13 20:01N 59°54' E 030°08'2 5.0
2018-Aug-13 19:30N 59°53' E 030°12'0 0.4
2018-Aug-13 18:58N 59°53' E 030°12'0 0.0
2018-Aug-13 18:31N 59°53' E 030°12'0 0.0
2018-Aug-13 17:55N 59°53' E 030°12'0 0.0
2018-Aug-13 17:31N 59°53' E 030°12'0 0.0
2018-Aug-13 17:01N 59°53' E 030°12'0 0.0
2018-Aug-13 16:31N 59°53' E 030°12'0 0.0
2018-Aug-13 16:00N 59°53' E 030°12'0 0.0
2018-Aug-13 15:31N 59°53' E 030°12'0 0.0
2018-Aug-13 15:00N 59°53' E 030°12'0 0.0
2018-Aug-13 14:30N 59°53' E 030°12'0 0.0
2018-Aug-13 14:00N 59°53' E 030°12'0 0.0
2018-Aug-13 13:30N 59°53' E 030°12'0 0.0
2018-Aug-13 13:00N 59°53' E 030°12'0 0.0
2018-Aug-13 12:30N 59°53' E 030°12'0 0.0
2018-Aug-13 12:00N 59°53' E 030°12'0 0.0
2018-Aug-13 11:30N 59°53' E 030°12'0 0.0
2018-Aug-13 11:00N 59°53' E 030°12'0 0.0
2018-Aug-13 10:30N 59°53' E 030°12'0 0.0
2018-Aug-13 10:00N 59°53' E 030°12'0 0.0
2018-Aug-13 09:30N 59°53' E 030°12'0 0.0
2018-Aug-13 08:54N 59°53' E 030°12'0 0.0
2018-Aug-13 08:30N 59°53' E 030°12'0 0.0
2018-Aug-13 08:00N 59°53' E 030°12'0 0.0
2018-Aug-13 07:30N 59°53' E 030°12'0 0.0
2018-Aug-13 06:54N 59°53' E 030°12'0 0.0
2018-Aug-13 06:30N 59°53' E 030°12'0 0.0
2018-Aug-13 06:00N 59°53' E 030°12'0 0.0
2018-Aug-13 05:24N 59°53' E 030°12'0 0.0
2018-Aug-13 05:00N 59°53' E 030°12'0 0.0
2018-Aug-13 04:30N 59°53' E 030°12'0 0.0
2018-Aug-13 03:57N 59°53' E 030°12'0 0.0
2018-Aug-13 03:30N 59°53' E 030°12'0 0.0
2018-Aug-13 03:00N 59°53' E 030°12'0 0.0
2018-Aug-13 02:30N 59°53' E 030°12'0 0.0
2018-Aug-13 02:00N 59°53' E 030°12'0 0.0
2018-Aug-13 01:24N 59°53' E 030°12'0 0.0
2018-Aug-13 01:00N 59°53' E 030°12'0 0.0
2018-Aug-13 00:30N 59°53' E 030°12'0 0.0
2018-Aug-13 00:00N 59°53' E 030°12'0 0.0
2018-Aug-12 23:30N 59°53' E 030°12'0 0.0
2018-Aug-12 23:00N 59°53' E 030°12'0 0.0
2018-Aug-12 22:30N 59°53' E 030°12'0 0.0
2018-Aug-12 22:00N 59°53' E 030°12'0 0.0
2018-Aug-12 21:30N 59°53' E 030°12'0 0.0
2018-Aug-12 21:00N 59°53' E 030°12'0 0.0
2018-Aug-12 20:30N 59°53' E 030°12'0 0.0
2018-Aug-12 20:00N 59°53' E 030°12'0 0.0
2018-Aug-12 19:30N 59°53' E 030°12'0 0.0
2018-Aug-12 19:00N 59°53' E 030°12'0 0.0
2018-Aug-12 18:30N 59°53' E 030°12'0 0.0
2018-Aug-12 18:00N 59°53' E 030°12'0 0.0
2018-Aug-12 17:30N 59°53' E 030°12'0 0.0
2018-Aug-12 17:00N 59°53' E 030°12'0 0.0
2018-Aug-12 16:30N 59°53' E 030°12'0 0.0
2018-Aug-12 16:00N 59°53' E 030°12'0 0.0
2018-Aug-12 15:30N 59°53' E 030°12'0 0.0
2018-Aug-12 15:00N 59°53' E 030°12'0 0.0
2018-Aug-12 14:30N 59°53' E 030°12'0 0.0
2018-Aug-12 14:00N 59°53' E 030°12'0 0.0
2018-Aug-12 13:30N 59°53' E 030°12'0 0.0
2018-Aug-12 12:54N 59°53' E 030°12'0 0.0
2018-Aug-12 12:30N 59°53' E 030°12'0 0.0
2018-Aug-12 12:00N 59°53' E 030°12'0 0.0
2018-Aug-12 11:30N 59°53' E 030°12'0 0.0
2018-Aug-12 11:00N 59°53' E 030°12'0 0.0
2018-Aug-12 10:27N 59°53' E 030°12'0 0.0
2018-Aug-12 10:00N 59°53' E 030°12'0 0.0
2018-Aug-12 09:30N 59°53' E 030°12'0 0.0
2018-Aug-12 09:00N 59°53' E 030°12'0 0.0
2018-Aug-12 08:30N 59°53' E 030°12'0 0.0
2018-Aug-12 08:00N 59°53' E 030°12'0 0.0
2018-Aug-12 07:27N 59°53' E 030°12'0 0.0
2018-Aug-12 07:00N 59°53' E 030°12'0 0.0
2018-Aug-12 06:30N 59°53' E 030°12'0 0.0
2018-Aug-12 05:57N 59°53' E 030°12'0 0.0
2018-Aug-12 05:30N 59°53' E 030°12'0 0.0
2018-Aug-12 05:00N 59°53' E 030°12'0 0.4
2018-Aug-12 04:30N 59°53' E 030°12'2 5.0
2018-Aug-12 04:00N 59°54' E 030°07'4 8.3
2018-Aug-12 03:30N 59°55' E 029°60'5 9.3
2018-Aug-12 03:00N 59°57' E 029°51'13 9.1
2018-Aug-12 01:32N 60°02' E 029°26'1 4.3
2018-Aug-12 01:20N 60°02' E 029°24'1 3.2
2018-Aug-12 01:00N 60°01' E 029°22'1 1.0
2018-Aug-12 00:20N 60°01' E 029°21'0 0.0
2018-Aug-12 00:00N 60°01' E 029°21'0 0.0
2018-Aug-11 23:23N 60°01' E 029°21'0 0.0
2018-Aug-11 22:56N 60°01' E 029°21'0 0.0
2018-Aug-11 22:30N 60°01' E 029°21'0 0.0
2018-Aug-11 21:59N 60°01' E 029°21'0 0.0
2018-Aug-11 21:21N 60°01' E 029°21'0 0.0
2018-Aug-11 20:57N 60°01' E 029°21'0 0.0
2018-Aug-11 20:29N 60°01' E 029°21'0 0.0
2018-Aug-11 19:53N 60°01' E 029°21'0 0.0
2018-Aug-11 19:25N 60°01' E 029°21'0 0.0
2018-Aug-11 18:56N 60°01' E 029°21'0 0.0
2018-Aug-11 18:23N 60°01' E 029°21'0 0.0
2018-Aug-11 17:56N 60°01' E 029°21'0 0.1
2018-Aug-11 17:27N 60°01' E 029°21'2 3.6
2018-Aug-11 16:57N 60°01' E 029°17'3 6.2
2018-Aug-11 16:28N 60°02' E 029°11'612.0
2018-Aug-11 16:00N 60°02' E 029°00'612.5
2018-Aug-11 15:30N 60°02' E 028°48'612.5
2018-Aug-11 15:00N 60°02' E 028°35'612.3
2018-Aug-11 14:30N 60°04' E 028°23'612.4
2018-Aug-11 14:00N 60°07' E 028°14'612.6
2018-Aug-11 13:30N 60°09' E 028°01'612.3
2018-Aug-11 13:00N 60°11' E 027°50'611.4
2018-Aug-11 12:30N 60°08' E 027°39'611.8
2018-Aug-11 12:00N 60°05' E 027°30'612.1
2018-Aug-11 11:30N 60°02' E 027°19'612.3
2018-Aug-11 11:00N 59°59' E 027°08'611.8
2018-Aug-11 10:30N 59°58' E 026°56'612.1
2018-Aug-11 10:00N 59°59' E 026°45'612.3
2018-Aug-11 09:30N 59°58' E 026°32'611.9
2018-Aug-11 09:00N 59°57' E 026°21'712.2
2018-Aug-11 08:24N 59°55' E 026°07'511.9
2018-Aug-11 07:57N 59°54' E 025°56'1512.5
2018-Aug-11 06:45N 59°50' E 025°27'312.6
2018-Aug-11 06:29N 59°50' E 025°20'612.5
2018-Aug-11 06:00N 59°48' E 025°09'611.9
2018-Aug-11 05:30N 59°47' E 024°57'611.5
2018-Aug-11 05:00N 59°46' E 024°46'611.8
2018-Aug-11 04:30N 59°45' E 024°34'611.7
2018-Aug-11 04:00N 59°44' E 024°23'611.6
2018-Aug-11 03:30N 59°42' E 024°12'611.8
2018-Aug-11 03:00N 59°40' E 024°01'611.9
2018-Aug-11 02:30N 59°38' E 023°50'612.0
2018-Aug-11 02:00N 59°36' E 023°39'611.7
2018-Aug-11 01:28N 59°34' E 023°28'511.5
2018-Aug-11 01:00N 59°32' E 023°18'611.6
2018-Aug-11 00:30N 59°30' E 023°07'4911.2
2018-Aug-10 20:10N 59°04' E 021°46'311.4
2018-Aug-10 19:55N 59°02' E 021°43'511.4
2018-Aug-10 19:30N 58°58' E 021°38'711.5
2018-Aug-10 18:55N 58°52' E 021°30'20811.7
2018-Aug-10 01:14N 55°60' E 017°56'311.5
2018-Aug-10 01:00N 55°58' E 017°52'611.5
2018-Aug-10 00:30N 55°55' E 017°43'611.2
2018-Aug-10 00:00N 55°54' E 017°33'611.2
2018-Aug-09 23:30N 55°53' E 017°24'611.2
2018-Aug-09 23:00N 55°52' E 017°14'611.3
2018-Aug-09 22:30N 55°50' E 017°04'611.3
2018-Aug-09 22:00N 55°49' E 016°54'611.4
2018-Aug-09 21:30N 55°48' E 016°44'611.4
2018-Aug-09 21:00N 55°46' E 016°35'611.4
2018-Aug-09 20:30N 55°45' E 016°25'611.5
2018-Aug-09 20:00N 55°44' E 016°15'611.6
2018-Aug-09 19:30N 55°42' E 016°05'611.7
2018-Aug-09 19:00N 55°41' E 015°55'611.8
2018-Aug-09 18:30N 55°40' E 015°45'611.7
2018-Aug-09 18:00N 55°38' E 015°34'611.6
2018-Aug-09 17:30N 55°36' E 015°25'611.8
2018-Aug-09 17:00N 55°34' E 015°15'611.7
2018-Aug-09 16:30N 55°31' E 015°06'611.9
2018-Aug-09 16:00N 55°29' E 014°57'612.1
2018-Aug-09 15:30N 55°26' E 014°47'611.8
2018-Aug-09 15:00N 55°23' E 014°38'612.0
2018-Aug-09 14:29N 55°19' E 014°31'611.9
2018-Aug-09 14:00N 55°14' E 014°25'611.9
2018-Aug-09 13:30N 55°09' E 014°19'611.9
2018-Aug-09 13:00N 55°05' E 014°12'611.6
2018-Aug-09 12:30N 55°01' E 014°05'612.0
2018-Aug-09 12:00N 54°59' E 013°55'611.9
2018-Aug-09 11:30N 54°57' E 013°45'611.9
2018-Aug-09 11:00N 54°55' E 013°35'611.6
2018-Aug-09 10:29N 54°53' E 013°25'1211.8
2018-Aug-09 09:29N 54°49' E 013°05'1011.8
2018-Aug-09 08:36N 54°46' E 012°49'111.9
2018-Aug-09 08:30N 54°45' E 012°47'611.8
2018-Aug-09 08:00N 54°42' E 012°38'611.9
2018-Aug-09 07:30N 54°39' E 012°29'612.1
2018-Aug-09 07:00N 54°35' E 012°21'612.3
2018-Aug-09 06:30N 54°30' E 012°15'612.0
2018-Aug-09 06:00N 54°25' E 012°11'1511.2
2018-Aug-09 04:39N 54°25' E 011°46'311.9
2018-Aug-09 04:27N 54°26' E 011°42'612.0
2018-Aug-09 03:55N 54°29' E 011°32'512.0
2018-Aug-09 03:30N 54°31' E 011°24'612.0
2018-Aug-09 03:00N 54°34' E 011°15'612.2
2018-Aug-09 02:30N 54°37' E 011°06'611.9
2018-Aug-09 02:00N 54°40' E 010°58'510.9
2018-Aug-09 01:30N 54°44' E 010°52'612.6
2018-Aug-09 01:00N 54°51' E 010°52'612.0
2018-Aug-09 00:30N 54°56' E 010°55'611.4
2018-Aug-09 00:00N 55°01' E 011°01'712.2
2018-Aug-08 23:28N 55°07' E 011°02'511.5
2018-Aug-08 23:00N 55°12' E 011°06'6210.5
2018-Aug-08 17:03N 56°14' E 011°20'111.9
2018-Aug-08 17:00N 56°15' E 011°20'2711.8
2018-Aug-08 14:44N 56°38' E 011°45'312.0
2018-Aug-08 14:29N 56°40' E 011°48'611.5
2018-Aug-08 14:00N 56°46' E 011°51'612.1
2018-Aug-08 13:29N 56°51' E 011°47'612.2
2018-Aug-08 13:00N 56°57' E 011°43'612.2
2018-Aug-08 12:29N 57°03' E 011°39'612.3
2018-Aug-08 12:00N 57°09' E 011°36'612.2
2018-Aug-08 11:30N 57°14' E 011°33'612.2
2018-Aug-08 11:00N 57°20' E 011°29'611.6
2018-Aug-08 10:30N 57°26' E 011°26'611.2
2018-Aug-08 10:00N 57°30' E 011°19'611.7
2018-Aug-08 09:30N 57°34' E 011°12'611.3
2018-Aug-08 09:00N 57°38' E 011°04'611.5
2018-Aug-08 08:30N 57°42' E 010°56'611.3
2018-Aug-08 08:00N 57°46' E 010°49'510.8
2018-Aug-08 07:30N 57°48' E 010°39'612.2
2018-Aug-08 06:58N 57°49' E 010°28'612.1
2018-Aug-08 06:30N 57°49' E 010°17'510.7
2018-Aug-08 06:00N 57°49' E 010°07'1 2.2
2018-Aug-08 05:27N 57°49' E 010°05'0 0.7
2018-Aug-08 05:01N 57°48' E 010°04'0 0.9
2018-Aug-08 04:30N 57°48' E 010°04'0 0.8
2018-Aug-08 03:59N 57°48' E 010°04'0 0.8
2018-Aug-08 03:30N 57°47' E 010°03'1 1.1
2018-Aug-08 02:58N 57°47' E 010°03'3 5.4
2018-Aug-08 02:27N 57°46' E 009°57'511.2
2018-Aug-08 02:00N 57°44' E 009°49'611.1
2018-Aug-08 01:30N 57°41' E 009°40'510.9
2018-Aug-08 01:00N 57°38' E 009°33'510.6
2018-Aug-08 00:31N 57°35' E 009°24'510.8
2018-Aug-08 00:00N 57°32' E 009°16'610.8
2018-Aug-07 23:30N 57°28' E 009°08'510.8
2018-Aug-07 23:00N 57°25' E 008°60'510.7
2018-Aug-07 22:30N 57°22' E 008°52'510.7
2018-Aug-07 22:00N 57°19' E 008°44'510.7
2018-Aug-07 21:30N 57°16' E 008°35'510.4
2018-Aug-07 20:59N 57°13' E 008°27'13911.6
2018-Aug-07 08:58N 55°15' E 006°17'611.7
2018-Aug-07 08:27N 55°09' E 006°11'511.7
2018-Aug-07 08:00N 55°05' E 006°07'611.8
2018-Aug-07 07:29N 54°60' E 006°02'611.8
2018-Aug-07 07:00N 54°54' E 005°58'611.7
2018-Aug-07 06:30N 54°49' E 005°53'611.7
2018-Aug-07 05:59N 54°44' E 005°48'1111.8
2018-Aug-07 05:04N 54°34' E 005°40'1812.0
2018-Aug-07 03:31N 54°21' E 005°17'012.4
2018-Aug-07 03:30N 54°21' E 005°16'712.4
2018-Aug-07 02:59N 54°17' E 005°08'912.4
2018-Aug-07 02:17N 54°12' E 004°56'512.4
2018-Aug-07 01:52N 54°09' E 004°49'512.5
2018-Aug-07 01:30N 54°06' E 004°43'611.8
2018-Aug-07 00:58N 54°00' E 004°38'612.1
2018-Aug-07 00:29N 53°55' E 004°36'612.4
2018-Aug-07 00:00N 53°50' E 004°29'612.3
2018-Aug-06 23:30N 53°46' E 004°22'612.3
2018-Aug-06 23:00N 53°42' E 004°13'612.1
2018-Aug-06 22:30N 53°39' E 004°05'612.0
2018-Aug-06 22:00N 53°35' E 003°57'611.9
2018-Aug-06 21:29N 53°32' E 003°48'611.8
2018-Aug-06 21:00N 53°27' E 003°43'612.0
2018-Aug-06 20:30N 53°21' E 003°39'711.8
2018-Aug-06 19:54N 53°15' E 003°34'711.8
2018-Aug-06 19:19N 53°09' E 003°30'411.4
2018-Aug-06 18:56N 53°04' E 003°27'511.4
2018-Aug-06 18:29N 52°60' E 003°24'511.3
2018-Aug-06 18:00N 52°55' E 003°20'611.1
2018-Aug-06 17:30N 52°50' E 003°16'611.0
2018-Aug-06 16:57N 52°44' E 003°12'710.8
2018-Aug-06 16:19N 52°38' E 003°07'410.7
2018-Aug-06 15:59N 52°35' E 003°04'510.7
2018-Aug-06 15:30N 52°31' E 002°60'510.8
2018-Aug-06 15:00N 52°26' E 002°55'510.7
2018-Aug-06 14:30N 52°21' E 002°51'510.8
2018-Aug-06 14:00N 52°16' E 002°47'510.9
2018-Aug-06 13:30N 52°12' E 002°43'510.3
2018-Aug-06 13:01N 52°08' E 002°38'611.0
2018-Aug-06 12:30N 52°06' E 002°30'611.1
2018-Aug-06 12:00N 52°03' E 002°21'1 1.1
2018-Aug-06 11:30N 52°03' E 002°22'0 0.0
2018-Aug-06 11:00N 52°03' E 002°22'0 0.0
2018-Aug-06 10:30N 52°03' E 002°22'0 0.0
2018-Aug-06 10:00N 52°03' E 002°22'0 0.0
2018-Aug-06 09:30N 52°03' E 002°22'0 0.0
2018-Aug-06 09:00N 52°03' E 002°22'0 0.0
2018-Aug-06 08:29N 52°03' E 002°22'0 0.0
2018-Aug-06 08:00N 52°03' E 002°22'  
Track history (hours):
 
Tides and Currents Weather Stations Pressure Air Temp Water Temp Dewpoint Dewpoint Depression Visibility Wind Speed Wind Dir Waves Ship Positions

Machitis

Last reported at 2018-Aug-16 07:30 UTC. Time now 2018-Aug-16 08:00 UTC.
Position N 55°01' E 013°49'.

Length 149 m; draft 7.2 m.

Type: Cargo ship. MMSI: 311000207.

Date/timePositionNaut miles runAvg speedWind from/ knotsBaromVisibWave heightAir tempDewpointWater temp
2018-Aug-16 07:30N 55°01' E 013°49'610.8
2018-Aug-16 07:00N 55°03' E 013°58'510.5
2018-Aug-16 06:30N 55°05' E 014°06'510.8
2018-Aug-16 06:00N 55°09' E 014°12'611.1
2018-Aug-16 05:30N 55°14' E 014°19'611.1
2018-Aug-16 05:00N 55°18' E 014°25'510.8
2018-Aug-16 04:30N 55°22' E 014°31'510.6
2018-Aug-16 04:00N 55°26' E 014°36'510.8
2018-Aug-16 03:30N 55°29' E 014°45'510.5
2018-Aug-16 03:00N 55°31' E 014°53'510.7
2018-Aug-16 02:30N 55°34' E 015°01'510.8
2018-Aug-16 02:00N 55°37' E 015°09'510.9
2018-Aug-16 01:30N 55°39' E 015°18'510.8
2018-Aug-16 01:00N 55°42' E 015°26'611.1
2018-Aug-16 00:30N 55°45' E 015°34'511.0
2018-Aug-16 00:00N 55°48' E 015°43'510.9
2018-Aug-15 23:30N 55°50' E 015°51'611.0
2018-Aug-15 23:00N 55°53' E 015°60'611.2
2018-Aug-15 22:30N 55°56' E 016°09'611.0
2018-Aug-15 22:00N 55°59' E 016°17'510.8
2018-Aug-15 21:30N 56°01' E 016°25'510.9
2018-Aug-15 21:00N 56°04' E 016°34'510.9
2018-Aug-15 20:30N 56°07' E 016°42'510.7
2018-Aug-15 20:00N 56°10' E 016°50'510.5
2018-Aug-15 19:30N 56°14' E 016°57'510.5
2018-Aug-15 18:59N 56°17' E 017°05'27510.7
2018-Aug-14 17:16N 59°35' E 023°04'311.1
2018-Aug-14 17:00N 59°36' E 023°10'611.2
2018-Aug-14 16:30N 59°38' E 023°20'611.2
2018-Aug-14 16:00N 59°39' E 023°31'611.1
2018-Aug-14 15:30N 59°41' E 023°42'611.2
2018-Aug-14 15:00N 59°42' E 023°53'911.1
2018-Aug-14 14:09N 59°45' E 024°11'510.8
2018-Aug-14 13:41N 59°46' E 024°20'310.5
2018-Aug-14 13:27N 59°47' E 024°25'510.6
2018-Aug-14 13:00N 59°48' E 024°34'510.4
2018-Aug-14 12:30N 59°49' E 024°44'610.4
2018-Aug-14 11:56N 59°50' E 024°56'410.5
2018-Aug-14 11:30N 59°51' E 025°05'510.6
2018-Aug-14 11:00N 59°52' E 025°15'510.5
2018-Aug-14 10:30N 59°53' E 025°25'2810.6
2018-Aug-14 07:52N 59°59' E 026°19'510.8
2018-Aug-14 07:25N 60°01' E 026°29'510.5
2018-Aug-14 06:59N 60°01' E 026°38'610.5
2018-Aug-14 06:22N 60°00' E 026°51'2710.4
2018-Aug-14 03:45N 60°11' E 027°41'16 9.9
2018-Aug-14 02:08N 60°08' E 028°13'110.0
2018-Aug-14 01:59N 60°08' E 028°16'510.0
2018-Aug-14 01:27N 60°05' E 028°24'4 9.9
2018-Aug-14 01:00N 60°03' E 028°32'510.3
2018-Aug-14 00:30N 60°03' E 028°43'510.4
2018-Aug-14 00:00N 60°03' E 028°53'610.4
2018-Aug-13 23:27N 60°02' E 029°04'14 9.8
2018-Aug-13 22:00N 60°01' E 029°33'5 9.8
2018-Aug-13 21:27N 59°59' E 029°43'4 9.1
2018-Aug-13 21:01N 59°57' E 029°50'510.0
2018-Aug-13 20:31N 59°55' E 029°59'4 8.8
2018-Aug-13 20:01N 59°54' E 030°08'2 5.0
2018-Aug-13 19:30N 59°53' E 030°12'0 0.4
2018-Aug-13 18:58N 59°53' E 030°12'0 0.0
2018-Aug-13 18:31N 59°53' E 030°12'0 0.0
2018-Aug-13 17:55N 59°53' E 030°12'0 0.0
2018-Aug-13 17:31N 59°53' E 030°12'0 0.0
2018-Aug-13 17:01N 59°53' E 030°12'0 0.0
2018-Aug-13 16:31N 59°53' E 030°12'0 0.0
2018-Aug-13 16:00N 59°53' E 030°12'0 0.0
2018-Aug-13 15:31N 59°53' E 030°12'0 0.0
2018-Aug-13 15:00N 59°53' E 030°12'0 0.0
2018-Aug-13 14:30N 59°53' E 030°12'0 0.0
2018-Aug-13 14:00N 59°53' E 030°12'0 0.0
2018-Aug-13 13:30N 59°53' E 030°12'0 0.0
2018-Aug-13 13:00N 59°53' E 030°12'0 0.0
2018-Aug-13 12:30N 59°53' E 030°12'0 0.0
2018-Aug-13 12:00N 59°53' E 030°12'0 0.0
2018-Aug-13 11:30N 59°53' E 030°12'0 0.0
2018-Aug-13 11:00N 59°53' E 030°12'0 0.0
2018-Aug-13 10:30N 59°53' E 030°12'0 0.0
2018-Aug-13 10:00N 59°53' E 030°12'0 0.0
2018-Aug-13 09:30N 59°53' E 030°12'0 0.0
2018-Aug-13 08:54N 59°53' E 030°12'0 0.0
2018-Aug-13 08:30N 59°53' E 030°12'0 0.0
2018-Aug-13 08:00N 59°53' E 030°12'0 0.0
2018-Aug-13 07:30N 59°53' E 030°12'0 0.0
2018-Aug-13 06:54N 59°53' E 030°12'0 0.0
2018-Aug-13 06:30N 59°53' E 030°12'0 0.0
2018-Aug-13 06:00N 59°53' E 030°12'0 0.0
2018-Aug-13 05:24N 59°53' E 030°12'0 0.0
2018-Aug-13 05:00N 59°53' E 030°12'0 0.0
2018-Aug-13 04:30N 59°53' E 030°12'0 0.0
2018-Aug-13 03:57N 59°53' E 030°12'0 0.0
2018-Aug-13 03:30N 59°53' E 030°12'0 0.0
2018-Aug-13 03:00N 59°53' E 030°12'0 0.0
2018-Aug-13 02:30N 59°53' E 030°12'0 0.0
2018-Aug-13 02:00N 59°53' E 030°12'0 0.0
2018-Aug-13 01:24N 59°53' E 030°12'0 0.0
2018-Aug-13 01:00N 59°53' E 030°12'0 0.0
2018-Aug-13 00:30N 59°53' E 030°12'0 0.0
2018-Aug-13 00:00N 59°53' E 030°12'0 0.0
2018-Aug-12 23:30N 59°53' E 030°12'0 0.0
2018-Aug-12 23:00N 59°53' E 030°12'0 0.0
2018-Aug-12 22:30N 59°53' E 030°12'0 0.0
2018-Aug-12 22:00N 59°53' E 030°12'0 0.0
2018-Aug-12 21:30N 59°53' E 030°12'0 0.0
2018-Aug-12 21:00N 59°53' E 030°12'0 0.0
2018-Aug-12 20:30N 59°53' E 030°12'0 0.0
2018-Aug-12 20:00N 59°53' E 030°12'0 0.0
2018-Aug-12 19:30N 59°53' E 030°12'0 0.0
2018-Aug-12 19:00N 59°53' E 030°12'0 0.0
2018-Aug-12 18:30N 59°53' E 030°12'0 0.0
2018-Aug-12 18:00N 59°53' E 030°12'0 0.0
2018-Aug-12 17:30N 59°53' E 030°12'0 0.0
2018-Aug-12 17:00N 59°53' E 030°12'0 0.0
2018-Aug-12 16:30N 59°53' E 030°12'0 0.0
2018-Aug-12 16:00N 59°53' E 030°12'0 0.0
2018-Aug-12 15:30N 59°53' E 030°12'0 0.0
2018-Aug-12 15:00N 59°53' E 030°12'0 0.0
2018-Aug-12 14:30N 59°53' E 030°12'0 0.0
2018-Aug-12 14:00N 59°53' E 030°12'0 0.0
2018-Aug-12 13:30N 59°53' E 030°12'0 0.0
2018-Aug-12 12:54N 59°53' E 030°12'0 0.0
2018-Aug-12 12:30N 59°53' E 030°12'0 0.0
2018-Aug-12 12:00N 59°53' E 030°12'0 0.0
2018-Aug-12 11:30N 59°53' E 030°12'0 0.0
2018-Aug-12 11:00N 59°53' E 030°12'0 0.0
2018-Aug-12 10:27N 59°53' E 030°12'0 0.0
2018-Aug-12 10:00N 59°53' E 030°12'0 0.0
2018-Aug-12 09:30N 59°53' E 030°12'0 0.0
2018-Aug-12 09:00N 59°53' E 030°12'0 0.0
2018-Aug-12 08:30N 59°53' E 030°12'0 0.0
2018-Aug-12 08:00N 59°53' E 030°12'0 0.0
2018-Aug-12 07:27N 59°53' E 030°12'0 0.0
2018-Aug-12 07:00N 59°53' E 030°12'0 0.0
2018-Aug-12 06:30N 59°53' E 030°12'0 0.0
2018-Aug-12 05:57N 59°53' E 030°12'0 0.0
2018-Aug-12 05:30N 59°53' E 030°12'0 0.0
2018-Aug-12 05:00N 59°53' E 030°12'0 0.4
2018-Aug-12 04:30N 59°53' E 030°12'2 5.0
2018-Aug-12 04:00N 59°54' E 030°07'4 8.3
2018-Aug-12 03:30N 59°55' E 029°60'5 9.3
2018-Aug-12 03:00N 59°57' E 029°51'13 9.1
2018-Aug-12 01:32N 60°02' E 029°26'1 4.3
2018-Aug-12 01:20N 60°02' E 029°24'1 3.2
2018-Aug-12 01:00N 60°01' E 029°22'1 1.0
2018-Aug-12 00:20N 60°01' E 029°21'0 0.0
2018-Aug-12 00:00N 60°01' E 029°21'0 0.0
2018-Aug-11 23:23N 60°01' E 029°21'0 0.0
2018-Aug-11 22:56N 60°01' E 029°21'0 0.0
2018-Aug-11 22:30N 60°01' E 029°21'0 0.0
2018-Aug-11 21:59N 60°01' E 029°21'0 0.0
2018-Aug-11 21:21N 60°01' E 029°21'0 0.0
2018-Aug-11 20:57N 60°01' E 029°21'0 0.0
2018-Aug-11 20:29N 60°01' E 029°21'0 0.0
2018-Aug-11 19:53N 60°01' E 029°21'0 0.0
2018-Aug-11 19:25N 60°01' E 029°21'0 0.0
2018-Aug-11 18:56N 60°01' E 029°21'0 0.0
2018-Aug-11 18:23N 60°01' E 029°21'0 0.0
2018-Aug-11 17:56N 60°01' E 029°21'0 0.1
2018-Aug-11 17:27N 60°01' E 029°21'2 3.6
2018-Aug-11 16:57N 60°01' E 029°17'3 6.2
2018-Aug-11 16:28N 60°02' E 029°11'612.0
2018-Aug-11 16:00N 60°02' E 029°00'612.5
2018-Aug-11 15:30N 60°02' E 028°48'612.5
2018-Aug-11 15:00N 60°02' E 028°35'612.3
2018-Aug-11 14:30N 60°04' E 028°23'612.4
2018-Aug-11 14:00N 60°07' E 028°14'612.6
2018-Aug-11 13:30N 60°09' E 028°01'612.3
2018-Aug-11 13:00N 60°11' E 027°50'611.4
2018-Aug-11 12:30N 60°08' E 027°39'611.8
2018-Aug-11 12:00N 60°05' E 027°30'612.1
2018-Aug-11 11:30N 60°02' E 027°19'612.3
2018-Aug-11 11:00N 59°59' E 027°08'611.8
2018-Aug-11 10:30N 59°58' E 026°56'612.1
2018-Aug-11 10:00N 59°59' E 026°45'612.3
2018-Aug-11 09:30N 59°58' E 026°32'611.9
2018-Aug-11 09:00N 59°57' E 026°21'712.2
2018-Aug-11 08:24N 59°55' E 026°07'511.9
2018-Aug-11 07:57N 59°54' E 025°56'1512.5
2018-Aug-11 06:45N 59°50' E 025°27'312.6
2018-Aug-11 06:29N 59°50' E 025°20'612.5
2018-Aug-11 06:00N 59°48' E 025°09'611.9
2018-Aug-11 05:30N 59°47' E 024°57'611.5
2018-Aug-11 05:00N 59°46' E 024°46'611.8
2018-Aug-11 04:30N 59°45' E 024°34'611.7
2018-Aug-11 04:00N 59°44' E 024°23'611.6
2018-Aug-11 03:30N 59°42' E 024°12'611.8
2018-Aug-11 03:00N 59°40' E 024°01'611.9
2018-Aug-11 02:30N 59°38' E 023°50'612.0
2018-Aug-11 02:00N 59°36' E 023°39'611.7
2018-Aug-11 01:28N 59°34' E 023°28'511.5
2018-Aug-11 01:00N 59°32' E 023°18'611.6
2018-Aug-11 00:30N 59°30' E 023°07'4911.2
2018-Aug-10 20:10N 59°04' E 021°46'311.4
2018-Aug-10 19:55N 59°02' E 021°43'511.4
2018-Aug-10 19:30N 58°58' E 021°38'711.5
2018-Aug-10 18:55N 58°52' E 021°30'20811.7
2018-Aug-10 01:14N 55°60' E 017°56'311.5
2018-Aug-10 01:00N 55°58' E 017°52'611.5
2018-Aug-10 00:30N 55°55' E 017°43'611.2
2018-Aug-10 00:00N 55°54' E 017°33'611.2
2018-Aug-09 23:30N 55°53' E 017°24'611.2
2018-Aug-09 23:00N 55°52' E 017°14'611.3
2018-Aug-09 22:30N 55°50' E 017°04'611.3
2018-Aug-09 22:00N 55°49' E 016°54'611.4
2018-Aug-09 21:30N 55°48' E 016°44'611.4
2018-Aug-09 21:00N 55°46' E 016°35'611.4
2018-Aug-09 20:30N 55°45' E 016°25'611.5
2018-Aug-09 20:00N 55°44' E 016°15'611.6
2018-Aug-09 19:30N 55°42' E 016°05'611.7
2018-Aug-09 19:00N 55°41' E 015°55'611.8
2018-Aug-09 18:30N 55°40' E 015°45'611.7
2018-Aug-09 18:00N 55°38' E 015°34'611.6
2018-Aug-09 17:30N 55°36' E 015°25'611.8
2018-Aug-09 17:00N 55°34' E 015°15'611.7
2018-Aug-09 16:30N 55°31' E 015°06'611.9
2018-Aug-09 16:00N 55°29' E 014°57'612.1
2018-Aug-09 15:30N 55°26' E 014°47'611.8
2018-Aug-09 15:00N 55°23' E 014°38'612.0
2018-Aug-09 14:29N 55°19' E 014°31'611.9
2018-Aug-09 14:00N 55°14' E 014°25'611.9
2018-Aug-09 13:30N 55°09' E 014°19'611.9
2018-Aug-09 13:00N 55°05' E 014°12'611.6
2018-Aug-09 12:30N 55°01' E 014°05'612.0
2018-Aug-09 12:00N 54°59' E 013°55'611.9
2018-Aug-09 11:30N 54°57' E 013°45'611.9
2018-Aug-09 11:00N 54°55' E 013°35'611.6
2018-Aug-09 10:29N 54°53' E 013°25'1211.8
2018-Aug-09 09:29N 54°49' E 013°05'1011.8
2018-Aug-09 08:36N 54°46' E 012°49'111.9
2018-Aug-09 08:30N 54°45' E 012°47'611.8
2018-Aug-09 08:00N 54°42' E 012°38'611.9
2018-Aug-09 07:30N 54°39' E 012°29'612.1
2018-Aug-09 07:00N 54°35' E 012°21'612.3
2018-Aug-09 06:30N 54°30' E 012°15'612.0
2018-Aug-09 06:00N 54°25' E 012°11'1511.2
2018-Aug-09 04:39N 54°25' E 011°46'311.9
2018-Aug-09 04:27N 54°26' E 011°42'612.0
2018-Aug-09 03:55N 54°29' E 011°32'512.0
2018-Aug-09 03:30N 54°31' E 011°24'612.0
2018-Aug-09 03:00N 54°34' E 011°15'612.2
2018-Aug-09 02:30N 54°37' E 011°06'611.9
2018-Aug-09 02:00N 54°40' E 010°58'510.9
2018-Aug-09 01:30N 54°44' E 010°52'612.6
2018-Aug-09 01:00N 54°51' E 010°52'612.0
2018-Aug-09 00:30N 54°56' E 010°55'611.4
2018-Aug-09 00:00N 55°01' E 011°01'712.2
2018-Aug-08 23:28N 55°07' E 011°02'511.5
2018-Aug-08 23:00N 55°12' E 011°06'6210.5
2018-Aug-08 17:03N 56°14' E 011°20'111.9
2018-Aug-08 17:00N 56°15' E 011°20'2711.8
2018-Aug-08 14:44N 56°38' E 011°45'312.0
2018-Aug-08 14:29N 56°40' E 011°48'611.5
2018-Aug-08 14:00N 56°46' E 011°51'612.1
2018-Aug-08 13:29N 56°51' E 011°47'612.2
2018-Aug-08 13:00N 56°57' E 011°43'612.2
2018-Aug-08 12:29N 57°03' E 011°39'612.3
2018-Aug-08 12:00N 57°09' E 011°36'612.2
2018-Aug-08 11:30N 57°14' E 011°33'612.2
2018-Aug-08 11:00N 57°20' E 011°29'611.6
2018-Aug-08 10:30N 57°26' E 011°26'611.2
2018-Aug-08 10:00N 57°30' E 011°19'611.7
2018-Aug-08 09:30N 57°34' E 011°12'611.3
2018-Aug-08 09:00N 57°38' E 011°04'611.5
2018-Aug-08 08:30N 57°42' E 010°56'611.3
2018-Aug-08 08:00N 57°46' E 010°49'510.8
2018-Aug-08 07:30N 57°48' E 010°39'612.2
2018-Aug-08 06:58N 57°49' E 010°28'612.1
2018-Aug-08 06:30N 57°49' E 010°17'510.7
2018-Aug-08 06:00N 57°49' E 010°07'1 2.2
2018-Aug-08 05:27N 57°49' E 010°05'0 0.7
2018-Aug-08 05:01N 57°48' E 010°04'0 0.9
2018-Aug-08 04:30N 57°48' E 010°04'0 0.8
2018-Aug-08 03:59N 57°48' E 010°04'0 0.8
2018-Aug-08 03:30N 57°47' E 010°03'1 1.1
2018-Aug-08 02:58N 57°47' E 010°03'3 5.4
2018-Aug-08 02:27N 57°46' E 009°57'511.2
2018-Aug-08 02:00N 57°44' E 009°49'611.1
2018-Aug-08 01:30N 57°41' E 009°40'510.9
2018-Aug-08 01:00N 57°38' E 009°33'510.6
2018-Aug-08 00:31N 57°35' E 009°24'510.8
2018-Aug-08 00:00N 57°32' E 009°16'610.8
2018-Aug-07 23:30N 57°28' E 009°08'510.8
2018-Aug-07 23:00N 57°25' E 008°60'510.7
2018-Aug-07 22:30N 57°22' E 008°52'510.7
2018-Aug-07 22:00N 57°19' E 008°44'510.7
2018-Aug-07 21:30N 57°16' E 008°35'510.4
2018-Aug-07 20:59N 57°13' E 008°27'13911.6
2018-Aug-07 08:58N 55°15' E 006°17'611.7
2018-Aug-07 08:27N 55°09' E 006°11'511.7
2018-Aug-07 08:00N 55°05' E 006°07'611.8
2018-Aug-07 07:29N 54°60' E 006°02'611.8
2018-Aug-07 07:00N 54°54' E 005°58'611.7
2018-Aug-07 06:30N 54°49' E 005°53'611.7
2018-Aug-07 05:59N 54°44' E 005°48'1111.8
2018-Aug-07 05:04N 54°34' E 005°40'1812.0
2018-Aug-07 03:31N 54°21' E 005°17'012.4
2018-Aug-07 03:30N 54°21' E 005°16'712.4
2018-Aug-07 02:59N 54°17' E 005°08'912.4
2018-Aug-07 02:17N 54°12' E 004°56'512.4
2018-Aug-07 01:52N 54°09' E 004°49'512.5
2018-Aug-07 01:30N 54°06' E 004°43'611.8
2018-Aug-07 00:58N 54°00' E 004°38'612.1
2018-Aug-07 00:29N 53°55' E 004°36'612.4
2018-Aug-07 00:00N 53°50' E 004°29'612.3
2018-Aug-06 23:30N 53°46' E 004°22'612.3
2018-Aug-06 23:00N 53°42' E 004°13'612.1
2018-Aug-06 22:30N 53°39' E 004°05'612.0
2018-Aug-06 22:00N 53°35' E 003°57'611.9
2018-Aug-06 21:29N 53°32' E 003°48'611.8
2018-Aug-06 21:00N 53°27' E 003°43'612.0
2018-Aug-06 20:30N 53°21' E 003°39'711.8
2018-Aug-06 19:54N 53°15' E 003°34'711.8
2018-Aug-06 19:19N 53°09' E 003°30'411.4
2018-Aug-06 18:56N 53°04' E 003°27'511.4
2018-Aug-06 18:29N 52°60' E 003°24'511.3
2018-Aug-06 18:00N 52°55' E 003°20'611.1
2018-Aug-06 17:30N 52°50' E 003°16'611.0
2018-Aug-06 16:57N 52°44' E 003°12'710.8
2018-Aug-06 16:19N 52°38' E 003°07'410.7
2018-Aug-06 15:59N 52°35' E 003°04'510.7
2018-Aug-06 15:30N 52°31' E 002°60'510.8
2018-Aug-06 15:00N 52°26' E 002°55'510.7
2018-Aug-06 14:30N 52°21' E 002°51'510.8
2018-Aug-06 14:00N 52°16' E 002°47'510.9
2018-Aug-06 13:30N 52°12' E 002°43'510.3
2018-Aug-06 13:01N 52°08' E 002°38'611.0
2018-Aug-06 12:30N 52°06' E 002°30'611.1
2018-Aug-06 12:00N 52°03' E 002°21'1 1.1
2018-Aug-06 11:30N 52°03' E 002°22'0 0.0
2018-Aug-06 11:00N 52°03' E 002°22'0 0.0
2018-Aug-06 10:30N 52°03' E 002°22'0 0.0
2018-Aug-06 10:00N 52°03' E 002°22'0 0.0
2018-Aug-06 09:30N 52°03' E 002°22'0 0.0
2018-Aug-06 09:00N 52°03' E 002°22'0 0.0
2018-Aug-06 08:29N 52°03' E 002°22'0 0.0
2018-Aug-06 08:00N 52°03' E 002°22'  

Dump ship's entire track history